RJKB(METAR)
04/24 09:00
RJKB 240000Z 21024KT 2000 RA SCT005 BKN010 22/22 Q1011 RMK A2985=
戻る
トップページへ戻る
IMOC Co,.Ltd.